createdAt,value
2022-10-29T00:01:40.800Z,101494.38
2022-10-29T00:04:09.241Z,101490.78
2022-10-29T00:06:37.008Z,101493.41
2022-10-29T00:09:05.599Z,101500.59
2022-10-29T00:11:33.364Z,101497.81
2022-10-29T00:14:02.335Z,101490.03
2022-10-29T00:16:36.044Z,101491.72
2022-10-29T00:19:05.654Z,101482.88
2022-10-29T00:21:34.403Z,101491.66
2022-10-29T00:24:02.401Z,101490.03
2022-10-29T00:26:31.050Z,101490.88
2022-10-29T00:28:58.883Z,101493.56
2022-10-29T00:31:26.719Z,101499.78
2022-10-29T00:33:56.136Z,101492.69
2022-10-29T00:36:28.172Z,101492.78
2022-10-29T00:38:57.002Z,101485.59
2022-10-29T00:41:27.375Z,101483.91
2022-10-29T00:44:38.514Z,101489.19
2022-10-29T00:47:18.728Z,101494.38
2022-10-29T00:49:49.011Z,101498.78
2022-10-29T00:52:20.454Z,101496.94
2022-10-29T00:54:50.355Z,101503.31
2022-10-29T00:57:23.502Z,101510.44
2022-10-29T00:59:51.314Z,101507.63
2022-10-29T01:02:19.375Z,101503.22
2022-10-29T01:04:47.384Z,101505.94
2022-10-29T01:07:15.440Z,101506.19
2022-10-29T01:09:44.902Z,101498.44
2022-10-29T01:12:40.333Z,101499.25
2022-10-29T01:15:21.508Z,101506.47
2022-10-29T01:18:05.490Z,101500.38
2022-10-29T01:21:24.172Z,101503.03
2022-10-29T01:24:31.598Z,101501.50
2022-10-29T01:27:23.519Z,101489.53
2022-10-29T01:30:04.095Z,101491.41
2022-10-29T01:32:42.906Z,101495.78
2022-10-29T01:35:16.085Z,101494.97
2022-10-29T01:37:55.161Z,101498.56
2022-10-29T01:40:27.688Z,101502.06
2022-10-29T01:43:05.109Z,101502.78
2022-10-29T01:45:37.368Z,101492.41
2022-10-29T01:48:11.403Z,101494.44
2022-10-29T01:50:43.485Z,101500.44
2022-10-29T01:53:12.066Z,101480.41
2022-10-29T01:55:39.792Z,101478.84
2022-10-29T01:58:08.498Z,101478.06
2022-10-29T02:00:43.494Z,101473.69
2022-10-29T02:03:26.415Z,101465.78
2022-10-29T02:06:01.388Z,101465.81
2022-10-29T02:08:36.797Z,101453.50
2022-10-29T02:11:11.169Z,101457.88
2022-10-29T02:13:45.782Z,101453.50
2022-10-29T02:16:15.242Z,101451.72
2022-10-29T02:18:46.829Z,101450.00
2022-10-29T02:21:16.419Z,101446.63
2022-10-29T02:23:44.394Z,101444.88
2022-10-29T02:26:12.176Z,101433.50
2022-10-29T02:28:40.049Z,101438.72
2022-10-29T02:31:07.750Z,101439.59
2022-10-29T02:33:35.642Z,101440.53
2022-10-29T02:36:05.367Z,101439.66
2022-10-29T02:38:33.050Z,101440.59
2022-10-29T02:41:00.783Z,101454.72
2022-10-29T02:43:28.591Z,101448.63
2022-10-29T02:46:13.468Z,101450.41
2022-10-29T02:48:41.169Z,101453.09
2022-10-29T02:51:10.252Z,101446.22
2022-10-29T02:53:38.493Z,101444.53
2022-10-29T02:56:07.940Z,101441.16
2022-10-29T02:58:36.050Z,101438.56
2022-10-29T03:01:04.245Z,101425.41
2022-10-29T03:03:32.425Z,101430.69
2022-10-29T03:06:00.317Z,101424.53
2022-10-29T03:08:29.406Z,101421.03
2022-10-29T03:10:57.202Z,101415.66
2022-10-29T03:13:25.082Z,101420.78
2022-10-29T03:15:52.829Z,101427.72
2022-10-29T03:18:20.549Z,101413.69
2022-10-29T03:20:48.526Z,101413.81
2022-10-29T03:23:16.277Z,101414.66
2022-10-29T03:25:45.688Z,101413.81
2022-10-29T03:28:13.347Z,101403.31
2022-10-29T03:30:41.101Z,101391.03
2022-10-29T03:33:08.800Z,101390.94
2022-10-29T03:35:36.574Z,101391.78
2022-10-29T03:38:04.324Z,101385.72
2022-10-29T03:40:32.133Z,101399.78
2022-10-29T03:43:01.246Z,101397.25
2022-10-29T03:45:28.944Z,101397.34
2022-10-29T03:47:57.575Z,101399.13
2022-10-29T03:50:25.703Z,101395.63
2022-10-29T03:52:53.419Z,101391.25
2022-10-29T03:55:21.153Z,101394.75
2022-10-29T03:57:48.814Z,101400.84
2022-10-29T04:00:18.431Z,101397.38
2022-10-29T04:02:46.266Z,101388.59
2022-10-29T04:05:14.091Z,101395.59
2022-10-29T04:07:41.788Z,101396.50
2022-10-29T04:10:10.264Z,101391.13
2022-10-29T04:12:37.951Z,101398.09
2022-10-29T04:15:06.815Z,101400.69
2022-10-29T04:17:35.944Z,101391.91
2022-10-29T04:20:07.003Z,101394.59
2022-10-29T04:28:42.358Z,101406.28
2022-10-29T04:31:06.517Z,101402.75
2022-10-29T04:33:35.534Z,101387.91
2022-10-29T04:36:03.914Z,101382.63
2022-10-29T04:38:31.555Z,101369.44
2022-10-29T04:41:00.313Z,101342.19
2022-10-29T04:43:28.874Z,101341.13
2022-10-29T04:45:57.905Z,101346.25
2022-10-29T04:48:26.982Z,101370.75
2022-10-29T04:50:56.641Z,101369.09
2022-10-29T04:53:24.397Z,101366.41
2022-10-29T04:55:52.276Z,101367.31
2022-10-29T04:58:21.478Z,101366.34
2022-10-29T05:00:49.196Z,101368.19
2022-10-29T05:03:16.985Z,101379.63
2022-10-29T05:05:44.763Z,101374.50
2022-10-29T05:08:15.284Z,101362.44
2022-10-29T05:10:43.058Z,101352.94
2022-10-29T05:13:13.123Z,101331.09
2022-10-29T05:15:41.680Z,101333.72
2022-10-29T05:18:10.791Z,101334.59
2022-10-29T05:20:38.519Z,101334.53
2022-10-29T05:23:07.873Z,101338.09
2022-10-29T05:25:39.018Z,101325.88
2022-10-29T05:28:10.827Z,101323.25
2022-10-29T05:30:39.971Z,101322.31
2022-10-29T05:33:08.117Z,101306.53
2022-10-29T05:35:36.459Z,101312.69
2022-10-29T05:38:05.486Z,101324.00
2022-10-29T05:40:33.708Z,101327.38
2022-10-29T05:43:02.808Z,101328.13
2022-10-29T05:45:30.575Z,101338.56
2022-10-29T05:47:59.137Z,101328.13
2022-10-29T05:50:27.522Z,101333.38
2022-10-29T05:52:59.158Z,101352.66
2022-10-29T05:55:27.850Z,101346.44
2022-10-29T05:57:57.290Z,101335.03
2022-10-29T06:00:27.695Z,101347.25
2022-10-29T06:02:56.117Z,101341.06
2022-10-29T06:05:24.156Z,101351.50
2022-10-29T06:07:55.520Z,101340.03
2022-10-29T06:10:24.099Z,101341.75
2022-10-29T06:12:51.874Z,101345.22
2022-10-29T06:15:20.261Z,101338.97
2022-10-29T06:17:49.606Z,101342.38
2022-10-29T06:20:20.806Z,101344.13
2022-10-29T06:22:48.646Z,101339.69
2022-10-29T06:25:16.519Z,101353.59
2022-10-29T06:27:44.223Z,101347.44
2022-10-29T06:30:13.197Z,101345.66
2022-10-29T06:32:40.889Z,101334.19
2022-10-29T06:35:11.221Z,101321.88
2022-10-29T06:37:39.149Z,101311.28
2022-10-29T06:40:07.932Z,101311.28
2022-10-29T06:42:35.685Z,101311.28
2022-10-29T06:45:03.425Z,101307.72
2022-10-29T06:47:31.125Z,101309.44
2022-10-29T06:49:58.839Z,101319.97
2022-10-29T06:52:27.905Z,101325.06
2022-10-29T06:54:55.551Z,101318.94
2022-10-29T06:57:24.804Z,101331.22
2022-10-29T06:59:52.584Z,101328.59
2022-10-29T07:02:21.744Z,101337.25
2022-10-29T07:04:49.486Z,101350.38
2022-10-29T07:07:17.949Z,101359.03
2022-10-29T07:09:47.094Z,101354.56
2022-10-29T07:12:14.828Z,101339.59
2022-10-29T07:14:42.515Z,101331.69
2022-10-29T07:17:10.295Z,101336.03
2022-10-29T07:19:37.970Z,101335.88
2022-10-29T07:22:06.146Z,101345.41
2022-10-29T07:24:33.836Z,101352.25
2022-10-29T07:27:03.813Z,101344.25
2022-10-29T07:29:31.572Z,101356.38
2022-10-29T07:31:59.232Z,101351.94
2022-10-29T07:34:26.954Z,101361.41
2022-10-29T07:36:54.652Z,101370.03
2022-10-29T07:39:22.658Z,101381.13
2022-10-29T07:41:51.431Z,101379.28
2022-10-29T07:44:22.128Z,101382.59
2022-10-29T07:46:49.790Z,101381.50
2022-10-29T07:49:17.494Z,101383.03
2022-10-29T07:51:45.236Z,101374.16
2022-10-29T07:54:14.892Z,101378.53
2022-10-29T07:56:45.192Z,101375.63
2022-10-29T07:59:15.704Z,101379.72
2022-10-29T08:01:44.806Z,101374.25
2022-10-29T08:04:13.375Z,101376.34
2022-10-29T08:06:41.144Z,101376.44
2022-10-29T08:09:08.972Z,101367.47
2022-10-29T08:11:37.074Z,101370.53
2022-10-29T08:14:05.151Z,101355.38
2022-10-29T08:16:32.935Z,101363.94
2022-10-29T08:19:02.290Z,101353.38
2022-10-29T08:21:30.163Z,101358.50
2022-10-29T08:23:58.287Z,101374.38
2022-10-29T08:26:26.039Z,101375.06
2022-10-29T08:28:53.713Z,101363.50
2022-10-29T08:31:21.585Z,101343.03
2022-10-29T08:33:49.739Z,101338.78
2022-10-29T08:36:18.848Z,101333.31
2022-10-29T08:38:47.759Z,101328.91
2022-10-29T08:41:37.297Z,101327.84
2022-10-29T08:44:20.631Z,101342.56
2022-10-29T08:46:51.723Z,101347.66
2022-10-29T08:49:22.343Z,101339.19
2022-10-29T08:51:57.853Z,101338.09
2022-10-29T08:54:31.460Z,101350.41
2022-10-29T08:57:03.590Z,101344.94
2022-10-29T08:59:36.733Z,101334.44
2022-10-29T09:02:04.814Z,101340.50
2022-10-29T09:04:35.806Z,101337.31
2022-10-29T09:07:21.020Z,101327.09
2022-10-29T09:09:58.691Z,101329.53
2022-10-29T09:12:42.024Z,101330.31
2022-10-29T09:15:28.735Z,101326.47
2022-10-29T09:18:12.575Z,101328.56
2022-10-29T09:20:52.330Z,101331.06
2022-10-29T09:23:31.466Z,101330.03
2022-10-29T09:26:03.890Z,101326.69
2022-10-29T09:28:44.851Z,101331.38
2022-10-29T09:31:22.002Z,101330.59
2022-10-29T09:33:55.332Z,101322.53
2022-10-29T09:36:26.149Z,101330.19
2022-10-29T09:38:58.663Z,101330.63
2022-10-29T09:41:31.428Z,101332.72
2022-10-29T09:44:03.785Z,101336.25
2022-10-29T09:46:40.499Z,101322.66
2022-10-29T09:49:24.323Z,101330.78
2022-10-29T09:51:56.977Z,101327.63
2022-10-29T09:54:28.646Z,101319.13
2022-10-29T09:56:58.036Z,101320.03
2022-10-29T09:59:32.807Z,101316.19
2022-10-29T10:02:01.037Z,101314.88
2022-10-29T10:04:31.870Z,101316.09
2022-10-29T10:07:08.922Z,101309.81
2022-10-29T10:09:55.605Z,101309.53
2022-10-29T10:12:25.590Z,101308.97
2022-10-29T10:15:03.988Z,101305.25
2022-10-29T10:18:01.232Z,101312.00
2022-10-29T10:20:32.962Z,101317.78
2022-10-29T10:23:01.033Z,101304.44
2022-10-29T10:25:40.884Z,101311.41
2022-10-29T10:28:20.376Z,101315.28
2022-10-29T10:31:07.795Z,101310.28
2022-10-29T10:33:37.596Z,101314.50
2022-10-29T10:36:10.205Z,101321.66
2022-10-29T10:38:44.531Z,101318.84
2022-10-29T10:41:15.795Z,101301.19
2022-10-29T10:43:46.043Z,101303.41
2022-10-29T10:46:20.567Z,101301.69
2022-10-29T10:48:58.839Z,101288.94
2022-10-29T10:51:30.607Z,101285.47
2022-10-29T10:53:59.642Z,101282.16
2022-10-29T10:56:28.719Z,101295.00
2022-10-29T10:59:04.445Z,101292.50
2022-10-29T11:01:37.391Z,101284.09
2022-10-29T11:04:15.743Z,101282.59
2022-10-29T11:06:47.688Z,101281.75
2022-10-29T11:09:21.958Z,101272.84
2022-10-29T11:11:59.263Z,101270.91
2022-10-29T11:14:32.596Z,101274.16
2022-10-29T11:17:02.882Z,101267.97
2022-10-29T11:19:38.161Z,101267.59
2022-10-29T11:22:16.622Z,101264.50
2022-10-29T11:24:52.112Z,101265.59
2022-10-29T11:27:29.570Z,101264.88
2022-10-29T11:30:04.250Z,101264.69
2022-10-29T11:32:42.712Z,101274.72
2022-10-29T11:35:14.237Z,101269.25
2022-10-29T11:37:51.092Z,101272.06
2022-10-29T11:40:23.803Z,101270.28
2022-10-29T11:42:53.145Z,101259.69
2022-10-29T11:45:28.654Z,101255.50
2022-10-29T11:48:08.336Z,101260.03
2022-10-29T11:50:47.051Z,101256.03
2022-10-29T11:53:42.135Z,101243.59
2022-10-29T11:56:20.499Z,101242.25
2022-10-29T11:58:55.735Z,101235.06
2022-10-29T12:01:32.200Z,101232.44
2022-10-29T12:04:12.480Z,101231.47
2022-10-29T12:06:54.790Z,101232.78
2022-10-29T12:09:46.429Z,101239.16
2022-10-29T12:12:21.479Z,101240.34
2022-10-29T12:14:52.811Z,101243.69
2022-10-29T12:17:24.195Z,101238.28
2022-10-29T12:19:58.264Z,101240.13
2022-10-29T12:22:38.523Z,101240.03
2022-10-29T12:25:21.387Z,101236.06
2022-10-29T12:28:01.962Z,101233.63
2022-10-29T12:30:35.113Z,101226.50
2022-10-29T12:33:13.395Z,101224.22
2022-10-29T12:35:46.975Z,101222.53
2022-10-29T12:38:29.021Z,101221.28
2022-10-29T12:41:03.089Z,101223.06
2022-10-29T12:43:34.577Z,101221.03
2022-10-29T12:46:21.279Z,101219.00
2022-10-29T12:48:59.238Z,101221.34
2022-10-29T12:51:37.798Z,101219.16
2022-10-29T12:54:23.143Z,101215.84
2022-10-29T12:56:51.219Z,101215.50
2022-10-29T12:59:30.443Z,101221.81
2022-10-29T13:02:19.656Z,101212.22
2022-10-29T13:05:33.449Z,101215.78
2022-10-29T13:08:27.683Z,101214.06
2022-10-29T13:10:57.542Z,101208.41
2022-10-29T13:13:49.993Z,101203.91
2022-10-29T13:16:21.538Z,101204.84
2022-10-29T13:19:03.049Z,101196.47
2022-10-29T13:21:59.765Z,101193.00
2022-10-29T13:24:28.934Z,101196.56
2022-10-29T13:27:02.517Z,101190.53
2022-10-29T13:29:48.909Z,101180.84
2022-10-29T13:32:33.793Z,101180.44
2022-10-29T13:35:05.270Z,101176.81
2022-10-29T13:37:54.400Z,101175.25
2022-10-29T13:40:58.962Z,101168.13
2022-10-29T13:43:28.037Z,101162.53
2022-10-29T13:46:48.147Z,101155.88
2022-10-29T13:49:23.197Z,101159.97
2022-10-29T13:51:56.985Z,101158.53
2022-10-29T13:54:31.921Z,101153.44
2022-10-29T13:57:01.770Z,101144.88
2022-10-29T13:59:37.395Z,101146.69
2022-10-29T14:02:23.411Z,101141.59
2022-10-29T14:04:57.646Z,101132.34
2022-10-29T14:07:34.806Z,101125.34
2022-10-29T14:10:09.432Z,101120.59
2022-10-29T14:12:39.426Z,101129.63
2022-10-29T14:15:10.385Z,101125.63
2022-10-29T14:17:39.794Z,101128.34
2022-10-29T14:20:22.090Z,101138.63
2022-10-29T14:22:51.447Z,101146.78
2022-10-29T14:25:35.721Z,101143.97
2022-10-29T14:28:22.247Z,101146.03
2022-10-29T14:31:01.287Z,101154.38
2022-10-29T14:33:31.311Z,101149.75
2022-10-29T14:36:06.605Z,101155.16
2022-10-29T14:38:43.353Z,101154.44
2022-10-29T14:41:11.943Z,101149.84
2022-10-29T14:43:40.588Z,101152.28
2022-10-29T14:46:15.491Z,101147.28
2022-10-29T14:48:54.719Z,101146.06
2022-10-29T14:51:23.424Z,101140.91
2022-10-29T14:53:59.726Z,101149.91
2022-10-29T14:56:34.250Z,101144.66
2022-10-29T14:59:08.448Z,101135.06
2022-10-29T15:01:46.585Z,101136.00
2022-10-29T15:04:20.577Z,101133.59
2022-10-29T15:06:48.466Z,101128.59
2022-10-29T15:09:26.821Z,101130.38
2022-10-29T15:12:03.046Z,101130.66
2022-10-29T15:14:46.664Z,101134.50
2022-10-29T15:17:21.208Z,101131.91
2022-10-29T15:19:52.506Z,101137.53
2022-10-29T15:22:25.750Z,101129.09
2022-10-29T15:24:56.804Z,101119.75
2022-10-29T15:27:24.851Z,101125.22
2022-10-29T15:29:54.377Z,101130.84
2022-10-29T15:32:24.135Z,101130.00
2022-10-29T15:34:56.553Z,101131.06
2022-10-29T15:37:27.167Z,101126.19
2022-10-29T15:40:07.028Z,101134.34
2022-10-29T15:42:37.539Z,101133.97
2022-10-29T15:45:19.406Z,101137.16
2022-10-29T15:47:49.223Z,101142.38
2022-10-29T15:50:18.924Z,101135.59
2022-10-29T15:52:52.272Z,101125.41
2022-10-29T15:55:27.078Z,101135.47
2022-10-29T15:58:00.492Z,101126.16
2022-10-29T16:00:28.647Z,101125.31
2022-10-29T16:03:00.971Z,101127.34
2022-10-29T16:05:28.692Z,101124.13
2022-10-29T16:07:57.519Z,101123.66
2022-10-29T16:10:26.565Z,101122.94
2022-10-29T16:12:54.775Z,101122.22
2022-10-29T16:15:23.023Z,101121.72
2022-10-29T16:17:50.772Z,101113.78
2022-10-29T16:20:20.502Z,101112.19
2022-10-29T16:22:50.124Z,101114.97
2022-10-29T16:25:22.860Z,101108.31
2022-10-29T16:27:52.267Z,101107.59
2022-10-29T16:30:21.123Z,101100.56
2022-10-29T16:32:50.864Z,101111.13
2022-10-29T16:35:21.511Z,101104.06
2022-10-29T16:37:50.119Z,101099.78
2022-10-29T16:40:18.934Z,101097.19
2022-10-29T16:42:47.025Z,101105.28
2022-10-29T16:45:18.720Z,101099.22
2022-10-29T16:47:46.977Z,101104.59
2022-10-29T16:50:17.721Z,101095.84
2022-10-29T16:52:45.515Z,101090.63
2022-10-29T16:55:14.090Z,101096.06
2022-10-29T16:57:42.061Z,101094.38
2022-10-29T17:00:10.695Z,101087.66
2022-10-29T17:02:40.535Z,101092.81
2022-10-29T17:05:08.855Z,101077.22
2022-10-29T17:07:36.542Z,101083.69
2022-10-29T17:10:04.736Z,101089.78
2022-10-29T17:12:32.616Z,101085.56
2022-10-29T17:15:00.357Z,101091.78
2022-10-29T17:17:31.019Z,101094.44
2022-10-29T17:20:00.470Z,101097.34
2022-10-29T17:22:28.234Z,101086.91
2022-10-29T17:24:55.950Z,101082.72
2022-10-29T17:27:23.725Z,101079.34
2022-10-29T17:29:51.426Z,101083.00
2022-10-29T17:32:19.146Z,101082.38
2022-10-29T17:34:46.878Z,101077.22
2022-10-29T17:37:15.975Z,101079.16
2022-10-29T17:39:43.759Z,101069.41
2022-10-29T17:42:11.437Z,101079.16
2022-10-29T17:44:39.116Z,101084.50
2022-10-29T17:47:06.840Z,101076.63
2022-10-29T17:49:34.854Z,101082.84
2022-10-29T17:52:02.536Z,101083.72
2022-10-29T17:54:33.984Z,101083.97
2022-10-29T17:57:02.991Z,101086.63
2022-10-29T17:59:30.740Z,101085.09
2022-10-29T18:01:58.751Z,101087.69
2022-10-29T18:04:26.780Z,101093.06
2022-10-29T18:06:56.843Z,101090.28
2022-10-29T18:09:24.508Z,101101.00
2022-10-29T18:11:53.855Z,101089.59
2022-10-29T18:14:21.647Z,101089.72
2022-10-29T18:16:50.313Z,101093.22
2022-10-29T18:19:18.263Z,101093.38
2022-10-29T18:21:46.471Z,101099.56
2022-10-29T18:24:14.248Z,101098.53
2022-10-29T18:26:41.934Z,101095.88
2022-10-29T18:29:13.191Z,101100.31
2022-10-29T18:31:44.738Z,101087.94
2022-10-29T18:34:14.977Z,101089.81
2022-10-29T18:36:43.121Z,101092.38
2022-10-29T18:39:10.852Z,101095.28
2022-10-29T18:41:39.448Z,101095.41
2022-10-29T18:44:07.468Z,101083.09
2022-10-29T18:46:36.503Z,101082.31
2022-10-29T18:49:04.956Z,101086.00
2022-10-29T18:51:33.729Z,101078.19
2022-10-29T18:54:01.634Z,101089.50
2022-10-29T18:56:30.961Z,101087.84
2022-10-29T18:59:00.271Z,101090.72
2022-10-29T19:01:31.324Z,101103.72
2022-10-29T19:04:03.641Z,101096.91
2022-10-29T19:06:33.222Z,101095.06
2022-10-29T19:09:02.449Z,101097.84
2022-10-29T19:11:30.307Z,101105.03
2022-10-29T19:13:59.620Z,101103.38
2022-10-29T19:16:28.540Z,101104.38
2022-10-29T19:18:57.801Z,101108.88
2022-10-29T19:21:27.662Z,101109.72
2022-10-29T19:23:56.605Z,101107.28
2022-10-29T19:26:25.723Z,101110.09
2022-10-29T19:28:53.881Z,101100.47
2022-10-29T19:31:23.635Z,101100.66
2022-10-29T19:33:52.841Z,101101.44
2022-10-29T19:36:21.039Z,101101.44
2022-10-29T19:38:50.481Z,101112.19
2022-10-29T19:41:18.950Z,101098.16
2022-10-29T19:43:47.656Z,101098.28
2022-10-29T19:46:17.295Z,101097.44
2022-10-29T19:48:49.875Z,101105.47
2022-10-29T19:51:17.696Z,101104.47
2022-10-29T19:53:45.679Z,101101.16
2022-10-29T19:56:17.019Z,101093.41
2022-10-29T19:58:45.438Z,101096.94
2022-10-29T20:01:15.960Z,101090.88
2022-10-29T20:03:44.182Z,101087.44
2022-10-29T20:06:12.643Z,101100.66
2022-10-29T20:08:40.443Z,101093.50
2022-10-29T20:11:08.551Z,101091.84
2022-10-29T20:13:37.881Z,101095.50
2022-10-29T20:16:10.226Z,101095.50
2022-10-29T20:18:38.161Z,101097.19
2022-10-29T20:23:39.254Z,101101.94
2022-10-29T20:26:07.867Z,101109.00
2022-10-29T20:28:37.508Z,101096.88
2022-10-29T20:31:24.458Z,101093.25
2022-10-29T20:33:53.515Z,101093.41
2022-10-29T20:36:21.815Z,101099.81
2022-10-29T20:38:50.322Z,101103.28
2022-10-29T20:41:18.705Z,101096.13
2022-10-29T20:43:52.804Z,101092.81
2022-10-29T20:46:20.926Z,101098.00
2022-10-29T20:48:48.668Z,101118.03
2022-10-29T20:51:17.129Z,101112.75
2022-10-29T20:53:45.284Z,101107.56
2022-10-29T20:56:16.196Z,101111.09
2022-10-29T20:58:44.639Z,101112.13
2022-10-29T21:01:16.122Z,101115.75
2022-10-29T21:03:44.584Z,101112.13
2022-10-29T21:06:17.193Z,101114.69
2022-10-29T21:08:45.390Z,101110.38
2022-10-29T21:11:14.968Z,101114.75
2022-10-29T21:13:42.880Z,101120.16
2022-10-29T21:16:17.220Z,101121.06
2022-10-29T21:18:46.547Z,101112.47
2022-10-29T21:21:14.633Z,101127.50
2022-10-29T21:23:42.483Z,101128.38
2022-10-29T21:26:12.956Z,101122.28
2022-10-29T21:28:40.687Z,101127.56
2022-10-29T21:31:08.732Z,101128.56
2022-10-29T21:33:37.919Z,101114.72
2022-10-29T21:36:06.128Z,101118.25
2022-10-29T21:38:34.255Z,101126.25
2022-10-29T21:41:03.037Z,101128.06
2022-10-29T21:43:30.847Z,101118.69
2022-10-29T21:45:58.849Z,101107.41
2022-10-29T21:48:27.384Z,101106.00
2022-10-29T21:51:02.288Z,101104.97
2022-10-29T21:53:30.453Z,101107.50
2022-10-29T21:55:58.454Z,101118.59
2022-10-29T21:58:26.736Z,101134.22
2022-10-29T22:01:03.416Z,101126.53
2022-10-29T22:03:31.642Z,101127.22
2022-10-29T22:06:04.593Z,101127.13
2022-10-29T22:08:32.531Z,101134.94
2022-10-29T22:11:00.761Z,101133.13
2022-10-29T22:13:29.083Z,101135.72
2022-10-29T22:15:57.090Z,101126.03
2022-10-29T22:18:25.977Z,101124.38
2022-10-29T22:21:05.280Z,101121.53
2022-10-29T22:23:33.310Z,101132.06
2022-10-29T22:26:01.349Z,101121.50
2022-10-29T22:28:29.197Z,101125.03
2022-10-29T22:31:01.185Z,101136.47
2022-10-29T22:33:29.364Z,101143.34
2022-10-29T22:35:57.268Z,101146.13
2022-10-29T22:38:26.317Z,101135.09
2022-10-29T22:40:54.161Z,101142.88
2022-10-29T22:43:21.874Z,101146.41
2022-10-29T22:45:49.594Z,101136.13
2022-10-29T22:48:17.254Z,101132.00
2022-10-29T22:50:44.982Z,101130.25
2022-10-29T22:53:12.718Z,101131.28
2022-10-29T22:55:41.830Z,101127.78
2022-10-29T22:58:09.716Z,101127.13
2022-10-29T23:00:37.394Z,101118.38
2022-10-29T23:03:05.440Z,101117.44
2022-10-29T23:05:33.299Z,101106.06
2022-10-29T23:08:01.261Z,101113.16
2022-10-29T23:10:29.008Z,101111.34
2022-10-29T23:12:58.046Z,101107.13
2022-10-29T23:15:25.780Z,101116.06
2022-10-29T23:17:54.410Z,101123.00
2022-10-29T23:20:22.258Z,101129.06
2022-10-29T23:22:49.964Z,101123.97
2022-10-29T23:25:17.919Z,101114.41
2022-10-29T23:27:45.700Z,101116.13
2022-10-29T23:30:15.356Z,101120.44
2022-10-29T23:32:43.187Z,101119.47
2022-10-29T23:35:10.846Z,101124.91
2022-10-29T23:37:38.551Z,101126.75
2022-10-29T23:40:07.363Z,101122.47
2022-10-29T23:42:35.113Z,101114.56
2022-10-29T23:45:06.871Z,101125.13
2022-10-29T23:47:36.911Z,101125.94
2022-10-29T23:50:04.980Z,101123.66
2022-10-29T23:52:32.706Z,101129.13
2022-10-29T23:55:00.682Z,101122.97
2022-10-29T23:57:28.398Z,101117.63
2022-10-29T23:59:56.179Z,101110.44
